Time;durP1;ratioP1;P1;durP2;ratioP2;P2;SDS_P1;SDS_P2;PMS_P1;PMS_P2;Temp;Humidity;BMP_temperature;BMP_pressure;BME280_temperature;BME280_humidity;BME280_pressure;Samples;Min_cycle;Max_cycle;Signal;HPM_P1;HPM_P2
2023/04/16 00:00:56;;;;;;;7.80;6.10;;;;;;;7.22;84.79;99542.61;217896;1257;140167;-69
2023/04/16 00:06:09;;;;;;;10.60;7.40;;;;;;;7.09;84.91;99548.41;217598;1256;139139;-69
2023/04/16 00:11:12;;;;;;;12.70;9.60;;;;;;;7.03;85.16;99553.36;217924;1256;140607;-69
2023/04/16 00:16:15;;;;;;;12.70;8.90;;;;;;;6.99;85.81;99552.88;218794;1256;139944;-69
2023/04/16 00:21:18;;;;;;;23.20;14.00;;;;;;;6.98;85.89;99551.01;217445;1257;244976;-69
2023/04/16 00:26:21;;;;;;;22.00;12.70;;;;;;;6.98;85.63;99560.42;219526;1256;140748;-70
2023/04/16 00:31:32;;;;;;;23.40;13.00;;;;;;;6.95;85.16;99560.48;220514;1256;140718;-70
2023/04/16 00:36:36;;;;;;;21.50;10.80;;;;;;;6.91;85.23;99557.08;217793;1257;139743;-70
2023/04/16 00:41:40;;;;;;;14.60;10.90;;;;;;;6.90;85.20;99565.08;218271;1257;140103;-69
2023/04/16 00:46:44;;;;;;;13.90;10.60;;;;;;;6.85;85.10;99563.12;217569;1258;140056;-69
2023/04/16 00:51:48;;;;;;;17.60;10.50;;;;;;;6.77;84.68;99564.43;218699;1257;140460;-69
2023/04/16 00:56:51;;;;;;;15.90;9.20;;;;;;;6.67;84.67;99564.06;218052;1257;139920;-69
2023/04/16 01:01:54;;;;;;;11.80;8.20;;;;;;;6.58;84.48;99567.33;218166;1256;140396;-69
2023/04/16 01:06:58;;;;;;;12.80;8.60;;;;;;;6.47;84.40;99572.98;218140;1256;140122;-69
2023/04/16 01:12:01;;;;;;;12.90;9.50;;;;;;;6.35;84.36;99568.31;217806;1257;139514;-69
2023/04/16 01:17:04;;;;;;;13.90;8.80;;;;;;;6.17;84.14;99569.85;218772;1256;140707;-69
2023/04/16 01:22:08;;;;;;;9.30;8.30;;;;;;;6.05;84.32;99574.79;217730;1257;139763;-69
2023/04/16 01:27:12;;;;;;;14.10;9.90;;;;;;;5.93;84.21;99572.91;218120;1257;139463;-68
2023/04/16 01:32:16;;;;;;;10.00;6.70;;;;;;;5.78;84.08;99573.86;218856;1258;140919;-69
2023/04/16 01:37:20;;;;;;;11.70;9.00;;;;;;;5.63;84.16;99575.89;217878;1256;140136;-68
2023/04/16 01:42:22;;;;;;;16.20;9.90;;;;;;;5.58;84.36;99575.64;217691;1259;140297;-68
2023/04/16 01:47:24;;;;;;;10.20;7.90;;;;;;;5.55;84.62;99581.95;217744;1256;140308;-68
2023/04/16 01:52:28;;;;;;;22.80;8.70;;;;;;;5.41;84.00;99583.30;218298;1257;140263;-68
2023/04/16 01:57:30;;;;;;;12.80;8.70;;;;;;;5.28;84.30;99588.52;217682;1260;141008;-68
2023/04/16 02:02:34;;;;;;;9.90;7.80;;;;;;;5.20;84.47;99593.49;217903;1256;139927;-69
2023/04/16 02:07:38;;;;;;;12.20;8.60;;;;;;;5.12;84.38;99591.34;218697;1256;140403;-69
2023/04/16 02:12:41;;;;;;;9.00;7.40;;;;;;;5.04;84.52;99594.63;217835;1256;139889;-71
2023/04/16 02:17:47;;;;;;;12.90;9.40;;;;;;;5.01;84.96;99601.20;217927;1259;140493;-70
2023/04/16 02:22:50;;;;;;;12.10;7.80;;;;;;;4.98;84.69;99605.30;219318;1256;139965;-71
2023/04/16 02:27:53;;;;;;;10.90;7.10;;;;;;;4.97;84.69;99608.15;218953;1256;139957;-71
2023/04/16 02:32:57;;;;;;;9.30;7.60;;;;;;;4.94;84.83;99610.86;217435;1256;139964;-70
2023/04/16 02:38:02;;;;;;;9.40;8.20;;;;;;;4.89;84.80;99617.24;218380;1257;141361;-70
2023/04/16 02:43:06;;;;;;;8.20;5.70;;;;;;;4.90;84.99;99622.32;218781;1257;140415;-71
2023/04/16 02:48:08;;;;;;;9.20;7.20;;;;;;;4.90;85.21;99624.71;217610;1260;140807;-70
2023/04/16 02:53:12;;;;;;;8.20;6.70;;;;;;;4.94;85.53;99630.85;217505;1259;152381;-70
2023/04/16 02:58:16;;;;;;;6.30;5.70;;;;;;;5.00;85.80;99637.21;218239;1257;139538;-71
2023/04/16 03:03:20;;;;;;;7.10;6.40;;;;;;;5.06;86.09;99643.52;217261;1257;140008;-71
2023/04/16 03:08:23;;;;;;;8.60;6.70;;;;;;;5.13;86.43;99647.00;218330;1256;140959;-70
2023/04/16 03:13:26;;;;;;;9.30;8.00;;;;;;;5.19;86.67;99653.11;217651;1256;142043;-70
2023/04/16 03:18:29;;;;;;;10.20;9.10;;;;;;;5.27;86.87;99654.64;217413;1260;139271;-70
2023/04/16 03:23:34;;;;;;;12.50;10.40;;;;;;;5.36;87.41;99656.52;217550;1257;140811;-70
2023/04/16 03:28:38;;;;;;;10.50;9.30;;;;;;;5.46;87.58;99658.98;217588;1256;140161;-71
2023/04/16 03:33:42;;;;;;;12.60;9.30;;;;;;;5.56;87.72;99661.15;217541;1257;139904;-71
2023/04/16 03:38:45;;;;;;;13.30;10.50;;;;;;;5.64;87.57;99667.74;217539;1260;139914;-69
2023/04/16 03:43:49;;;;;;;13.00;9.00;;;;;;;5.74;87.90;99668.89;217957;1260;139818;-68
2023/04/16 03:48:54;;;;;;;19.40;13.20;;;;;;;5.84;88.19;99671.22;217925;1256;139655;-69
2023/04/16 03:53:58;;;;;;;12.90;11.20;;;;;;;5.94;88.71;99678.00;218684;1257;140815;-70
2023/04/16 03:59:02;;;;;;;19.00;13.30;;;;;;;6.03;88.57;99685.29;219921;1256;140200;-67
2023/04/16 04:04:05;;;;;;;22.00;14.60;;;;;;;6.11;89.10;99683.75;219042;1256;140615;-70
2023/04/16 04:09:12;;;;;;;;;;;;;;;6.20;88.69;99689.18;219400;1257;140712;-70
2023/04/16 04:14:15;;;;;;;20.90;13.30;;;;;;;6.27;88.65;99696.38;218431;1260;125945;-70
2023/04/16 04:19:18;;;;;;;18.50;12.90;;;;;;;6.36;89.00;99700.20;219245;1256;140906;-69
2023/04/16 04:24:22;;;;;;;17.60;12.70;;;;;;;6.44;89.10;99703.09;219504;1256;139387;-69
2023/04/16 04:29:25;;;;;;;21.00;15.20;;;;;;;6.50;88.72;99708.04;219381;1259;140507;-69
2023/04/16 04:34:30;;;;;;;17.80;12.30;;;;;;;6.59;88.96;99714.38;217841;1260;141081;-69
2023/04/16 04:39:33;;;;;;;17.30;13.10;;;;;;;6.66;88.56;99719.64;219013;1256;140025;-69
2023/04/16 04:44:35;;;;;;;19.40;12.40;;;;;;;6.73;88.47;99725.67;217638;1257;141550;-70
2023/04/16 04:49:38;;;;;;;27.40;16.00;;;;;;;6.75;88.41;99725.50;217975;1257;140059;-69
2023/04/16 04:54:43;;;;;;;26.20;18.00;;;;;;;6.80;88.73;99729.45;217959;1256;139943;-70
2023/04/16 04:59:48;;;;;;;20.40;14.20;;;;;;;6.89;88.98;99733.36;217655;1257;141167;-68
2023/04/16 05:04:51;;;;;;;26.30;16.60;;;;;;;6.92;88.38;99740.24;218347;1256;140928;-69
2023/04/16 05:09:56;;;;;;;28.30;20.20;;;;;;;6.97;89.02;99744.42;217665;1256;141399;-70
2023/04/16 05:15:00;;;;;;;21.00;15.80;;;;;;;7.03;88.48;99750.34;217934;1256;140553;-68
2023/04/16 05:20:05;;;;;;;26.90;19.40;;;;;;;7.03;88.60;99759.09;217785;1260;140649;-68
2023/04/16 05:25:08;;;;;;;24.40;16.60;;;;;;;7.09;88.25;99764.48;218319;1256;140295;-67
2023/04/16 05:30:11;;;;;;;29.20;18.60;;;;;;;7.13;88.10;99768.39;218769;1259;140187;-67
2023/04/16 05:35:14;;;;;;;19.00;13.70;;;;;;;7.20;88.52;99776.29;217861;1256;139854;-68
2023/04/16 05:40:19;;;;;;;24.60;16.80;;;;;;;7.26;88.11;99780.98;218556;1256;140534;-68
2023/04/16 05:45:22;;;;;;;29.80;19.20;;;;;;;7.34;87.94;99780.55;218298;1256;140431;-67
2023/04/16 05:50:26;;;;;;;21.20;14.80;;;;;;;7.42;88.26;99785.85;218069;1259;140600;-68
2023/04/16 05:55:29;;;;;;;27.40;18.20;;;;;;;7.45;87.43;99790.66;218896;1257;140395;-69
2023/04/16 06:00:32;;;;;;;21.40;13.60;;;;;;;7.49;87.66;99797.30;219122;1256;140058;-65
2023/04/16 06:05:35;;;;;;;26.90;16.90;;;;;;;7.52;87.34;99799.56;219305;1256;164554;-68
2023/04/16 06:10:39;;;;;;;23.10;15.20;;;;;;;7.58;87.22;99806.35;218548;1256;140755;-70
2023/04/16 06:15:43;;;;;;;29.60;19.70;;;;;;;7.67;86.87;99808.60;217971;1256;140623;-69
2023/04/16 06:20:48;;;;;;;31.80;20.10;;;;;;;7.75;87.24;99809.58;219581;1257;140723;-67
2023/04/16 06:25:53;;;;;;;29.90;20.00;;;;;;;7.88;87.44;99812.27;218401;1257;140347;-71
2023/04/16 06:30:58;;;;;;;26.90;18.90;;;;;;;7.96;86.54;99823.27;217943;1256;139942;-70
2023/04/16 06:36:02;;;;;;;20.80;15.20;;;;;;;8.03;86.64;99818.15;218600;1258;140259;-70
2023/04/16 06:41:05;;;;;;;27.10;18.60;;;;;;;8.10;86.59;99817.69;218049;1256;140659;-69
2023/04/16 06:46:08;;;;;;;23.90;14.50;;;;;;;8.19;86.48;99817.14;217850;1259;139618;-71
2023/04/16 06:51:12;;;;;;;33.00;21.40;;;;;;;8.21;85.89;99818.77;218040;1256;140290;-68
2023/04/16 06:56:15;;;;;;;28.10;19.20;;;;;;;8.31;86.41;99822.55;218333;1257;140650;-66
2023/04/16 07:01:20;;;;;;;24.40;14.90;;;;;;;8.40;85.71;99822.81;217619;1257;141333;-70
2023/04/16 07:06:26;;;;;;;29.10;17.90;;;;;;;8.43;85.51;99826.63;217177;1256;140142;-69
2023/04/16 07:11:30;;;;;;;30.60;19.00;;;;;;;8.53;85.25;99829.80;217890;1260;140848;-70
2023/04/16 07:16:36;;;;;;;33.80;22.70;;;;;;;8.66;85.67;99838.67;217835;1256;140807;-70
2023/04/16 07:21:42;;;;;;;25.60;17.70;;;;;;;8.78;85.18;99848.42;217324;1258;139620;-69
2023/04/16 07:26:45;;;;;;;32.10;21.20;;;;;;;8.78;84.82;99852.15;217227;1259;140939;-69
2023/04/16 07:31:48;;;;;;;29.20;19.50;;;;;;;8.90;84.90;99850.69;217198;1262;140774;-69
2023/04/16 07:36:51;;;;;;;29.40;18.90;;;;;;;9.03;84.64;99858.38;217302;1256;140324;-70
2023/04/16 07:41:54;;;;;;;27.80;19.70;;;;;;;9.11;84.25;99868.59;217569;1258;140009;-69
2023/04/16 07:46:56;;;;;;;29.80;21.00;;;;;;;9.19;84.15;99875.08;219344;1257;140471;-69
2023/04/16 07:51:59;;;;;;;29.50;21.70;;;;;;;9.24;83.98;99879.85;218175;1260;141038;-68
2023/04/16 07:57:02;;;;;;;25.10;19.40;;;;;;;9.30;83.64;99883.64;217463;1257;141434;-68
2023/04/16 08:02:05;;;;;;;31.40;21.70;;;;;;;9.34;83.47;99883.46;219124;1256;162226;-70
2023/04/16 08:07:08;;;;;;;31.90;20.20;;;;;;;9.43;83.54;99894.73;220271;1256;140430;-70
2023/04/16 08:12:12;;;;;;;29.60;21.50;;;;;;;9.55;83.13;99898.44;218405;1261;140631;-68
2023/04/16 08:17:15;;;;;;;21.50;16.90;;;;;;;9.64;83.09;99899.88;217307;1259;139996;-69
2023/04/16 08:22:23;;;;;;;24.40;19.00;;;;;;;9.67;82.78;99907.55;219241;1259;140267;-70
2023/04/16 08:27:28;;;;;;;19.40;14.70;;;;;;;9.74;82.56;99914.05;217778;1261;141192;-69
2023/04/16 08:32:31;;;;;;;21.50;16.20;;;;;;;9.77;82.13;99917.55;217328;1260;140892;-69
2023/04/16 08:37:36;;;;;;;22.50;16.10;;;;;;;9.70;81.94;99921.34;218110;1262;140946;-69
2023/04/16 08:42:47;;;;;;;20.30;15.90;;;;;;;9.66;81.78;99928.20;218483;1261;142294;-70
2023/04/16 08:47:51;;;;;;;19.60;14.90;;;;;;;9.55;81.61;99932.09;217448;1260;140121;-67
2023/04/16 08:53:05;;;;;;;23.30;16.40;;;;;;;9.58;81.78;99934.02;217299;1257;140621;-68
2023/04/16 08:58:20;;;;;;;25.20;18.40;;;;;;;9.56;81.55;99943.09;217750;1260;141393;-67
2023/04/16 09:03:23;;;;;;;18.90;14.30;;;;;;;9.63;82.01;99948.25;217347;1261;140842;-69
2023/04/16 09:08:26;;;;;;;25.10;16.50;;;;;;;9.84;82.33;99948.72;217252;1260;140809;-68
2023/04/16 09:13:31;;;;;;;19.50;14.40;;;;;;;10.09;82.02;99959.52;217797;1256;140118;-68
2023/04/16 09:18:33;;;;;;;19.90;17.70;;;;;;;10.11;80.84;99966.80;217336;1259;140746;-68
2023/04/16 09:23:37;;;;;;;17.10;13.10;;;;;;;10.16;81.26;99971.58;217477;1260;140396;-67
2023/04/16 09:28:44;;;;;;;22.50;15.50;;;;;;;10.33;81.04;99971.44;218655;1256;140689;-69
2023/04/16 09:34:07;;;;;;;17.60;14.50;;;;;;;10.62;80.80;99971.05;217246;1262;140276;-68
2023/04/16 09:39:19;;;;;;;21.80;14.80;;;;;;;11.01;80.63;99971.48;217511;1262;141098;-68
2023/04/16 09:44:37;;;;;;;17.40;14.80;;;;;;;11.25;79.67;99974.54;219569;1256;140235;-70
2023/04/16 09:49:42;;;;;;;19.10;13.40;;;;;;;11.61;79.23;99976.48;217709;1256;141049;-67
2023/04/16 09:54:53;;;;;;;26.60;16.00;;;;;;;11.87;78.46;99978.50;219042;1257;141456;-69
2023/04/16 10:00:06;;;;;;;18.00;14.50;;;;;;;12.13;77.89;99981.17;217697;1262;141098;-69
2023/04/16 10:05:15;;;;;;;15.00;12.80;;;;;;;12.56;77.87;99981.68;217798;1261;140378;-69
2023/04/16 10:10:19;;;;;;;16.10;13.70;;;;;;;13.22;77.80;99983.85;220093;1256;142324;-69
2023/04/16 10:15:22;;;;;;;16.90;12.70;;;;;;;13.78;77.29;99988.85;217552;1258;141331;-70
2023/04/16 10:20:26;;;;;;;12.20;11.00;;;;;;;14.20;76.36;99992.55;219445;1257;141570;-70
2023/04/16 10:25:30;;;;;;;17.70;15.70;;;;;;;14.28;74.97;99999.88;217669;1261;140332;-69
2023/04/16 10:30:36;;;;;;;15.70;13.20;;;;;;;14.27;74.60;100003.41;217454;1258;140634;-69
2023/04/16 10:35:39;;;;;;;16.80;15.00;;;;;;;14.66;74.13;100005.54;217400;1256;141124;-68
2023/04/16 10:40:44;;;;;;;17.80;15.70;;;;;;;15.12;73.85;100001.98;217411;1260;140430;-69
2023/04/16 10:45:47;;;;;;;15.40;13.90;;;;;;;15.37;72.75;100000.85;217339;1262;140738;-68
2023/04/16 10:50:58;;;;;;;16.60;12.80;;;;;;;15.53;72.45;99996.98;217591;1262;140260;-68
2023/04/16 10:56:04;;;;;;;17.00;14.70;;;;;;;15.42;70.95;99994.44;217335;1257;140766;-68
2023/04/16 11:01:13;;;;;;;14.60;13.20;;;;;;;15.51;71.04;100001.11;218366;1262;139996;-69
2023/04/16 11:06:23;;;;;;;16.80;14.10;;;;;;;15.68;70.97;100004.33;217380;1257;139679;-68
2023/04/16 11:11:38;;;;;;;15.90;14.20;;;;;;;15.54;69.80;99999.56;217230;1262;140554;-66
2023/04/16 11:16:41;;;;;;;14.30;12.90;;;;;;;15.64;70.16;100003.19;217350;1262;140554;-67
2023/04/16 11:21:45;;;;;;;11.90;10.60;;;;;;;15.71;69.06;100004.34;217172;1262;140188;-70
2023/04/16 11:26:53;;;;;;;18.00;11.30;;;;;;;15.71;68.64;100000.48;218456;1260;139919;-68
2023/04/16 11:31:57;;;;;;;13.40;12.00;;;;;;;15.77;68.56;99998.58;217897;1257;140488;-70
2023/04/16 11:37:00;;;;;;;13.00;11.60;;;;;;;15.83;68.33;100001.45;217780;1261;141014;-69
2023/04/16 11:42:03;;;;;;;12.70;11.40;;;;;;;15.56;67.78;100000.60;217676;1260;140261;-71
2023/04/16 11:47:06;;;;;;;12.90;11.50;;;;;;;15.27;67.71;99996.23;216707;1261;429971;-68
2023/04/16 11:52:10;;;;;;;11.90;10.70;;;;;;;15.04;67.86;100003.05;220095;1257;139760;-71
2023/04/16 11:57:14;;;;;;;15.40;11.80;;;;;;;14.95;68.07;100007.39;219475;1261;140371;-70
2023/04/16 12:02:17;;;;;;;11.80;10.70;;;;;;;14.89;67.78;100003.91;217532;1262;155479;-70
2023/04/16 12:07:21;;;;;;;10.70;9.50;;;;;;;14.90;67.72;100005.75;219105;1261;139846;-68
2023/04/16 12:12:26;;;;;;;11.50;10.00;;;;;;;14.96;67.92;100004.02;217521;1261;140417;-70
2023/04/16 12:17:31;;;;;;;12.20;11.00;;;;;;;15.35;67.53;99998.80;217548;1261;140163;-75
2023/04/16 12:22:36;;;;;;;10.50;9.50;;;;;;;15.59;66.90;99999.07;217337;1262;140479;-77
2023/04/16 12:27:54;;;;;;;13.10;10.50;;;;;;;15.66;66.86;100000.55;217435;1262;139323;-76
2023/04/16 12:33:15;;;;;;;11.50;9.60;;;;;;;15.60;66.31;99998.10;217181;1261;141195;-78
2023/04/16 12:38:18;;;;;;;11.40;10.30;;;;;;;15.77;66.31;99997.02;217866;1258;140426;-71
2023/04/16 12:43:20;;;;;;;9.10;8.30;;;;;;;16.08;66.02;99991.48;217799;1257;140182;-71
2023/04/16 12:48:22;;;;;;;10.50;9.20;;;;;;;16.17;64.68;99990.11;218175;1261;140122;-68
2023/04/16 12:53:26;;;;;;;10.50;9.60;;;;;;;16.38;65.13;99984.93;217057;1257;139869;-70
2023/04/16 12:58:29;;;;;;;12.00;10.10;;;;;;;16.48;64.24;99982.48;217268;1261;140414;-69
2023/04/16 13:03:31;;;;;;;12.70;10.90;;;;;;;16.39;64.18;99987.57;217053;1258;141917;-71
2023/04/16 13:49:09;;;;;;;16.70;12.10;;;;;;;15.68;64.73;100008.36;217194;1260;378776;-69
2023/04/16 14:13:34;;;;;;;18.20;14.70;;;;;;;15.02;64.94;100029.23;216360;1265;224083;-71
2023/04/16 14:18:40;;;;;;;17.80;14.70;;;;;;;14.95;65.14;100030.38;217869;1264;140929;-72
2023/04/16 14:23:45;;;;;;;15.10;13.50;;;;;;;14.99;65.23;100024.85;219149;1264;141673;-70
2023/04/16 14:28:49;;;;;;;18.60;14.10;;;;;;;15.09;64.94;100019.89;216788;1266;140785;-77
2023/04/16 14:33:52;;;;;;;17.90;13.70;;;;;;;15.22;65.20;100023.98;216786;1262;141758;-74
2023/04/16 14:38:55;;;;;;;13.20;11.10;;;;;;;15.41;65.38;100018.11;216443;1267;141030;-73
2023/04/16 14:43:58;;;;;;;25.20;18.10;;;;;;;15.54;65.14;100016.89;216652;1262;141941;-76
2023/04/16 14:49:02;;;;;;;16.60;14.00;;;;;;;15.73;65.07;100023.86;216895;1262;141367;-73
2023/04/16 14:54:04;;;;;;;20.10;15.40;;;;;;;15.92;64.95;100023.14;216392;1266;141032;-71
2023/04/16 14:59:08;;;;;;;17.70;15.00;;;;;;;16.05;64.87;100029.39;216600;1264;141466;-72
2023/04/16 15:04:11;;;;;;;17.40;15.60;;;;;;;16.17;64.58;100028.14;216828;1264;141045;-75
2023/04/16 15:09:14;;;;;;;16.40;14.70;;;;;;;16.23;64.48;100032.13;217009;1264;140616;-78
2023/04/16 15:14:18;;;;;;;15.10;13.20;;;;;;;16.33;64.45;100032.54;216795;1264;140710;-68
2023/04/16 15:19:21;;;;;;;14.90;12.80;;;;;;;16.34;64.27;100040.98;217417;1263;140572;-71
2023/04/16 15:24:25;;;;;;;16.00;13.90;;;;;;;16.36;63.88;100036.15;217403;1264;140102;-71
2023/04/16 15:29:27;;;;;;;16.90;14.30;;;;;;;16.42;63.77;100041.88;218336;1263;141010;-75
2023/04/16 15:34:30;;;;;;;15.10;11.90;;;;;;;16.47;63.68;100048.40;218189;1263;140337;-69
2023/04/16 15:39:33;;;;;;;16.60;14.00;;;;;;;16.47;63.66;100043.45;217135;1264;140533;-71
2023/04/16 15:44:41;;;;;;;15.90;14.20;;;;;;;16.37;63.36;100049.23;217696;1267;140089;-73
2023/04/16 15:49:43;;;;;;;9.40;8.50;;;;;;;16.30;63.42;100053.34;217011;1264;140194;-75
2023/04/16 15:54:48;;;;;;;9.60;8.70;;;;;;;16.13;63.01;100053.56;216198;1264;139551;-73
2023/04/16 15:59:50;;;;;;;9.00;8.00;;;;;;;15.89;62.82;100052.97;218049;1263;140656;-72
2023/04/16 16:05:13;;;;;;;10.90;8.80;;;;;;;15.40;62.89;100056.42;218062;1264;141583;-74
2023/04/16 16:10:15;;;;;;;9.10;8.30;;;;;;;15.06;63.29;100053.91;219093;1263;139605;-71
2023/04/16 16:15:21;;;;;;;12.30;9.20;;;;;;;14.75;63.28;100058.73;219598;1264;139306;-73
2023/04/16 16:20:24;;;;;;;10.60;9.10;;;;;;;14.44;63.55;100064.53;217191;1267;140202;-70
2023/04/16 16:25:29;;;;;;;11.80;8.90;;;;;;;14.21;63.80;100065.48;217868;1264;140134;-70
2023/04/16 16:30:32;;;;;;;9.70;8.40;;;;;;;14.07;64.17;100067.94;217267;1263;141426;-67
2023/04/16 16:35:37;;;;;;;12.80;11.30;;;;;;;13.95;64.48;100070.33;217812;1264;140801;-71
2023/04/16 16:40:40;;;;;;;11.10;9.50;;;;;;;13.80;64.69;100073.21;216603;1264;141419;-70
2023/04/16 16:45:45;;;;;;;11.10;9.30;;;;;;;13.71;64.81;100073.77;217824;1264;140852;-74
2023/04/16 16:50:48;;;;;;;11.60;10.30;;;;;;;13.62;65.00;100076.40;217724;1264;141316;-70
2023/04/16 16:55:52;;;;;;;10.00;9.00;;;;;;;13.50;65.09;100075.21;216408;1265;140453;-72
2023/04/16 17:00:55;;;;;;;10.10;8.50;;;;;;;13.36;65.23;100075.75;216977;1264;140407;-71
2023/04/16 17:06:02;;;;;;;10.70;9.10;;;;;;;13.20;65.26;100077.48;216971;1263;141092;-72
2023/04/16 17:11:05;;;;;;;9.90;8.90;;;;;;;13.10;65.77;100083.61;217056;1264;141427;-72
2023/04/16 17:16:09;;;;;;;12.90;10.90;;;;;;;12.99;65.94;100088.39;216757;1264;140157;-70
2023/04/16 17:21:13;;;;;;;10.60;9.10;;;;;;;12.87;66.28;100094.40;216941;1267;140500;-70
2023/04/16 17:26:19;;;;;;;15.10;10.10;;;;;;;12.70;66.34;100102.55;216518;1265;139988;-69
2023/04/16 17:31:22;;;;;;;13.40;12.00;;;;;;;12.48;66.33;100106.08;217950;1265;140360;-70
2023/04/16 17:36:32;;;;;;;16.70;11.80;;;;;;;12.26;66.70;100109.24;217728;1263;142844;-71
2023/04/16 17:41:38;;;;;;;16.60;12.80;;;;;;;12.11;67.17;100115.14;218836;1264;230244;-70
2023/04/16 17:46:41;;;;;;;17.50;11.50;;;;;;;12.01;67.63;100115.60;217633;1265;142991;-70
2023/04/16 17:51:52;;;;;;;16.90;13.30;;;;;;;11.89;67.91;100124.96;216750;1265;141553;-69
2023/04/16 17:57:00;;;;;;;24.70;13.10;;;;;;;11.74;68.35;100132.04;219674;1264;141909;-71
2023/04/16 18:02:06;;;;;;;17.20;12.60;;;;;;;11.55;68.39;100139.50;219109;1265;142179;-70
2023/04/16 18:07:13;;;;;;;23.60;13.40;;;;;;;11.36;68.68;100144.80;218225;1264;140487;-70
2023/04/16 18:12:22;;;;;;;17.90;11.90;;;;;;;11.19;68.78;100145.83;219529;1263;142250;-70
2023/04/16 18:17:24;;;;;;;21.70;13.70;;;;;;;11.03;69.05;100151.92;219009;1264;140782;-70
2023/04/16 18:22:30;;;;;;;22.60;14.20;;;;;;;10.87;69.19;100157.36;217823;1264;141850;-70
2023/04/16 18:27:39;;;;;;;24.90;13.70;;;;;;;10.72;69.16;100160.11;216468;1265;140326;-70
2023/04/16 18:32:46;;;;;;;21.90;13.90;;;;;;;10.57;69.55;100163.27;217754;1263;140642;-70
2023/04/16 18:38:17;;;;;;;17.90;12.70;;;;;;;10.39;69.82;100167.29;216634;1267;142501;-70
2023/04/16 18:43:22;;;;;;;18.50;12.90;;;;;;;10.23;70.10;100166.22;217236;1264;140282;-69
2023/04/16 18:48:25;;;;;;;19.30;12.60;;;;;;;10.08;70.46;100169.80;216514;1265;140424;-70
2023/04/16 18:53:30;;;;;;;19.10;13.80;;;;;;;9.92;70.68;100174.48;216586;1267;140369;-70
2023/04/16 18:58:33;;;;;;;23.00;16.00;;;;;;;9.76;71.05;100180.61;216735;1267;140397;-70
2023/04/16 19:03:36;;;;;;;25.00;15.60;;;;;;;9.61;71.12;100180.77;216697;1265;141103;-70
2023/04/16 19:08:39;;;;;;;21.00;14.90;;;;;;;9.46;71.26;100182.65;216621;1264;140547;-69
2023/04/16 19:13:42;;;;;;;23.40;15.50;;;;;;;9.32;71.52;100191.39;216843;1265;140136;-69
2023/04/16 19:18:46;;;;;;;34.70;19.80;;;;;;;9.15;71.68;100189.29;216779;1264;140893;-70
2023/04/16 19:23:50;;;;;;;53.90;25.20;;;;;;;8.97;71.73;100199.17;216584;1267;142642;-70
2023/04/16 19:28:53;;;;;;;65.90;29.00;;;;;;;8.78;72.31;100196.50;217002;1265;140187;-70
2023/04/16 19:33:57;;;;;;;115.60;45.00;;;;;;;8.65;72.32;100200.30;217973;1265;141464;-70
2023/04/16 19:38:59;;;;;;;99.20;38.80;;;;;;;8.55;72.65;100205.63;216628;1264;142552;-69
2023/04/16 19:44:03;;;;;;;60.10;29.30;;;;;;;8.45;72.86;100202.27;217327;1265;159827;-69
2023/04/16 19:49:05;;;;;;;48.30;24.60;;;;;;;8.32;73.03;100202.89;218041;1265;140523;-72
2023/04/16 19:54:08;;;;;;;41.80;22.40;;;;;;;8.20;73.24;100202.48;217473;1267;140786;-71
2023/04/16 19:59:10;;;;;;;40.70;24.80;;;;;;;8.08;73.29;100204.20;216793;1264;139981;-71
2023/04/16 20:04:14;;;;;;;40.80;22.30;;;;;;;7.98;73.46;100202.83;218612;1263;141549;-72
2023/04/16 20:09:19;;;;;;;42.40;20.70;;;;;;;7.87;73.34;100213.66;217437;1265;140408;-72
2023/04/16 20:14:22;;;;;;;27.20;18.00;;;;;;;7.77;73.51;100218.89;217203;1264;210297;-71
2023/04/16 20:19:28;;;;;;;56.10;29.00;;;;;;;7.65;73.67;100218.64;217436;1264;141566;-72
2023/04/16 20:24:33;;;;;;;50.10;24.80;;;;;;;7.57;74.00;100218.00;217540;1266;141079;-72
2023/04/16 20:29:35;;;;;;;52.00;26.40;;;;;;;7.48;74.29;100218.35;216875;1267;140115;-70
2023/04/16 20:34:39;;;;;;;40.90;23.30;;;;;;;7.38;74.51;100225.19;217346;1264;141340;-71
2023/04/16 20:39:45;;;;;;;28.60;17.80;;;;;;;7.22;73.88;100227.05;216998;1267;140210;-71
2023/04/16 20:44:49;;;;;;;27.10;17.90;;;;;;;7.01;74.73;100230.41;216535;1267;140105;-71
2023/04/16 20:49:53;;;;;;;25.90;16.50;;;;;;;6.86;75.04;100230.23;216820;1264;140066;-72
2023/04/16 20:54:56;;;;;;;23.20;16.40;;;;;;;6.80;75.61;100230.49;217759;1263;140272;-72
2023/04/16 21:00:03;;;;;;;26.10;18.60;;;;;;;6.74;75.61;100228.89;216758;1264;141068;-70
2023/04/16 21:05:13;;;;;;;23.70;18.30;;;;;;;6.71;75.80;100234.31;217639;1265;140019;-70
2023/04/16 21:10:18;;;;;;;24.50;17.70;;;;;;;6.72;76.38;100235.52;216772;1265;139896;-70
2023/04/16 21:15:22;;;;;;;24.40;17.80;;;;;;;6.70;76.02;100238.95;217690;1267;141180;-70
2023/04/16 21:20:27;;;;;;;26.00;19.20;;;;;;;6.65;75.90;100241.09;216629;1264;140153;-69
2023/04/16 21:25:33;;;;;;;17.70;13.90;;;;;;;6.55;76.59;100240.25;217496;1265;141974;-69
2023/04/16 21:30:35;;;;;;;22.10;13.60;;;;;;;6.47;76.76;100235.55;216403;1267;140015;-69
2023/04/16 21:35:38;;;;;;;19.30;14.10;;;;;;;6.40;76.49;100232.44;217340;1268;141192;-70
2023/04/16 21:40:41;;;;;;;16.00;12.70;;;;;;;6.34;77.07;100234.20;216987;1264;141855;-70
2023/04/16 21:45:44;;;;;;;21.50;15.20;;;;;;;6.30;77.11;100229.08;217277;1263;141150;-70
2023/04/16 21:50:46;;;;;;;20.10;14.70;;;;;;;6.25;77.15;100231.86;218974;1264;141237;-71
2023/04/16 21:55:49;;;;;;;21.00;18.00;;;;;;;6.19;77.06;100233.20;219716;1264;140037;-69
2023/04/16 22:00:52;;;;;;;21.00;15.90;;;;;;;6.19;77.30;100235.88;219587;1263;141042;-70
2023/04/16 22:05:59;;;;;;;26.60;18.80;;;;;;;6.18;77.39;100234.05;219101;1263;140037;-70
2023/04/16 22:11:03;;;;;;;24.00;19.50;;;;;;;6.23;78.28;100235.34;218346;1266;140460;-69
2023/04/16 22:16:06;;;;;;;27.30;20.80;;;;;;;6.26;78.72;100233.82;217292;1265;140415;-69
2023/04/16 22:21:13;;;;;;;27.70;19.00;;;;;;;6.29;79.16;100232.48;216790;1267;140323;-69
2023/04/16 22:26:16;;;;;;;27.30;20.80;;;;;;;6.30;79.42;100231.45;216783;1264;140269;-69
2023/04/16 22:31:19;;;;;;;23.80;17.90;;;;;;;6.30;79.43;100228.23;217502;1263;142431;-69
2023/04/16 22:36:23;;;;;;;28.40;18.30;;;;;;;6.29;79.30;100229.11;217158;1263;141584;-69
2023/04/16 22:41:26;;;;;;;30.30;19.90;;;;;;;6.24;79.50;100233.64;218245;1263;141774;-69
2023/04/16 22:46:30;;;;;;;29.50;20.60;;;;;;;6.18;79.91;100226.40;216806;1264;140558;-68
2023/04/16 22:51:34;;;;;;;24.70;18.70;;;;;;;6.15;79.75;100229.34;217480;1263;140180;-68
2023/04/16 22:56:38;;;;;;;26.90;18.00;;;;;;;6.11;79.89;100229.12;216960;1265;140272;-68
2023/04/16 23:01:41;;;;;;;29.30;19.00;;;;;;;6.06;80.25;100236.99;217811;1267;140047;-69
2023/04/16 23:06:45;;;;;;;27.10;17.80;;;;;;;5.95;79.68;100234.79;217726;1263;140187;-68
2023/04/16 23:11:49;;;;;;;24.00;17.80;;;;;;;5.87;79.64;100231.89;216788;1267;140246;-68
2023/04/16 23:16:53;;;;;;;25.40;19.30;;;;;;;5.81;79.68;100230.46;218250;1265;140235;-68
2023/04/16 23:22:00;;;;;;;23.80;16.30;;;;;;;5.74;79.63;100232.52;216883;1264;141850;-68
2023/04/16 23:27:03;;;;;;;27.80;17.90;;;;;;;5.67;79.67;100231.53;217703;1268;140706;-68
2023/04/16 23:32:06;;;;;;;29.40;20.20;;;;;;;5.61;79.42;100227.20;217958;1264;140495;-68
2023/04/16 23:37:09;;;;;;;30.30;18.60;;;;;;;5.54;79.62;100229.41;217629;1263;141491;-69
2023/04/16 23:42:13;;;;;;;23.40;16.80;;;;;;;5.47;79.84;100227.98;218681;1263;140175;-69
2023/04/16 23:47:15;;;;;;;28.70;18.60;;;;;;;5.40;79.55;100220.91;217402;1264;1160056;-68
2023/04/16 23:52:17;;;;;;;28.10;19.20;;;;;;;5.37;80.19;100222.35;219672;1263;141662;-70